Anza Borrego Desert State Park, California Weather observations

Data are for 10 minute period ending at time listed.
 Day   Time   Solar   Ave.   Ave.  Ave.  Vector  Max.   Baro.   Total    
  of    of     Rad.   Air    Rel.  Wind   Wind   Wind  Press.  Precip.   
Year   Day            Temp.  Hum.  Speed  Dir.   Gust                    
2026   (PST)  Kw/m2    F      %     mph   deg.    mph    mb.     in.     
-------------------------------------------------------------------------
 123    1:50   0.00   74.9    13    4.3   102     5.5   978.6    0.00 
 123    2:00   0.00   74.7    14    1.4   110     4.4   978.4    0.00 
 123    2:10   0.00   76.0    13    3.0    42     4.8   978.4    0.00 
 123    2:20   0.00   76.6    13    3.3   273     5.5   978.4    0.00 
 123    2:30   0.00   77.9    12    2.8   206     9.3   978.3    0.00 
 123    2:40   0.00   74.7    14    6.8   221     8.7   978.3    0.00 
 123    2:50   0.00   74.8    14    7.1   234     8.9   978.3    0.00 
 123    3:00   0.00   74.6    14    4.7   200     7.7   978.4    0.00 
 123    3:10   0.00   74.0    14    2.8   196     5.7   978.4    0.00 
 123    3:20   0.00   73.7    14    3.0   153     6.4   978.3    0.00 
 123    3:30   0.00   74.1    14    2.6   165     4.2   978.3    0.00 
 123    3:40   0.00   73.8    14    3.7   184     6.7   978.3    0.00 
 123    3:50   0.00   75.9    14    1.9   193     5.0   978.4    0.00 
 123    4:00   0.00   76.2    13    1.9   277     4.2   978.4    0.00 
 123    4:10   0.00   72.3    15    3.7   254    13.4   978.3    0.00 
 123    4:20   0.00   73.2    15    4.8   231    13.6   978.4    0.00 
 123    4:30   0.00   69.1    17    3.6   242     6.3   978.4    0.00 
 123    4:40   0.00   69.6    17    3.3   255     5.6   978.3    0.00 
 123    4:50   0.00   68.4    18    3.8   276     6.2   978.4    0.00 
 123    5:00   0.00   70.4    16    2.4    21     3.5   978.5    0.00 
 123    5:10   0.01   71.9    16    1.5    22     3.4   978.6    0.00 
 123    5:20   0.01   70.5    17    2.1   254     4.3   978.9    0.00 
 123    5:30   0.02   71.3    16    1.4   225     4.4   979.0    0.00 
 123    5:40   0.06   70.2    17    3.5   236     5.6   979.1    0.00 
 123    5:50   0.12   72.3    16    3.9   241     6.4   979.2    0.00 
 123    6:00   0.15   76.1    15    2.8   252     4.1   979.4    0.00 
 123    6:10   0.19   79.5    13    1.2   256     3.4   979.5    0.00 
 123    6:20   0.22   81.6    12    1.3    20     2.6   979.7    0.00 
 123    6:30   0.26   81.5    13    3.0    43     5.3   979.7    0.00 
 123    6:40   0.30   79.8    14    2.2    96     4.4   979.8    0.00 
 123    6:50   0.34   79.6    14    3.9    89     5.5   979.8    0.00 
 123    7:00   0.37   81.1    13    1.5    66     3.2   979.9    0.00 
 123    7:10   0.41   82.0    13    3.2    62     5.2   979.9    0.00 
 123    7:20   0.44   81.6    13    4.5    67     6.9   979.9    0.00 
 123    7:30   0.48   82.7    13    2.3    48     5.6   979.8    0.00 
 123    7:40   0.52   83.5    12    3.3    21     5.6   979.9    0.00 
 123    7:50   0.55   83.8    12    4.0    28     6.4   979.8    0.00 
 123    8:00   0.58   85.0    12    5.2    34     7.6   979.8    0.00 
 123    8:10   0.61   86.2    11    5.0   331    10.1   979.8    0.00 
 123    8:20   0.65   87.1    11   11.8   242    18.9   979.8    0.00 
 123    8:30   0.68   87.5    11   12.2   253    21.2   979.7    0.00 
 123    8:40   0.71   87.5    10   10.9   260    19.0   979.7    0.00 
 123    8:50   0.74   88.3    10   13.9   244    20.3   979.7    0.00 
 123    9:00   0.76   88.3    10   12.8   245    21.4   979.7    0.00 
 123    9:10   0.79   88.4    11   12.7   245    20.2   979.7    0.00 
 123    9:20   0.81   87.7    11   11.1   254    17.0   979.8    0.00 
 123    9:30   0.83   88.5    12    9.1   248    15.3   979.8    0.00 
 123    9:40   0.85   89.3    11    9.5   247    15.3   979.7    0.00 
 123    9:50   0.87   89.0    11    9.1   260    15.7   979.6    0.00 
 123   10:00   0.89   89.4    12   12.7   265    19.6   979.5    0.00 
 123   10:10   0.91   89.9    12   12.0   253    20.8   979.3    0.00 
 123   10:20   0.92   90.2    12   16.9   236    24.9   979.2    0.00 
 123   10:30   0.93   90.0    12   14.2   241    21.1   979.2    0.00 
 123   10:40   0.94   89.7    12   13.6   253    25.0   979.2    0.00 
 123   10:50   0.96   90.1    12   12.7   241    21.1   979.1    0.00 
 123   11:00   0.96   89.7    12   12.5   265    21.6   978.9    0.00 
 123   11:10   0.97   90.6    12   11.8   260    20.8   978.7    0.00 
 123   11:20   0.98   90.7    12   14.7   247    23.8   978.6    0.00 
 123   11:30   0.98   90.4    13   12.3   266    26.3   978.5    0.00 
 123   11:40   0.99   89.8    13   18.1   280    29.6   978.2    0.00 
 123   11:50   0.99   90.1    12   18.4   275    27.7   978.1    0.00 
 123   12:00   0.98   90.7    12   16.3   268    28.1   978.1    0.00 
 123   12:10   0.98   89.8    14   19.3   266    29.5   978.0    0.00 
 123   12:20   0.97   88.7    16   20.7   248    30.1   977.9    0.00 
 123   12:30   0.96   88.7    16   22.1   263    37.0   977.7    0.00 
 123   12:40   0.94   88.4    15   23.9   260    33.4   977.6    0.00 
 123   12:50   0.95   87.5    15   28.2   252    45.6   977.7    0.00 
 123   13:00   0.95   87.1    14   27.9   240    38.1   977.7    0.00 
 123   13:10   0.94   87.5    14   24.7   233    37.2   977.7    0.00 
 123   13:20   0.92   88.1    14   23.2   235    33.1   977.7    0.00 
 123   13:30   0.91   87.5    15   23.2   237    35.1   977.7    0.00 
 123   13:40   0.90   87.3    15   23.2   241    36.5   977.7    0.00 
 123   13:50   0.88   86.2    16   25.2   237    37.2   977.6    0.00 
 123   14:00   0.86   87.5    16   20.6   248    34.1   977.5    0.00 
 123   14:10   0.83   86.4    17   22.6   247    35.6   977.5    0.00 
 123   14:20   0.81   85.4    18   24.9   260    37.5   977.3    0.00 
 123   14:30   0.79   85.5    18   21.7   252    36.4   977.4    0.00 
 123   14:40   0.76   85.1    18   23.2   253    35.1   977.4    0.00 
 123   14:50   0.74   84.5    18   20.0   240    38.3   977.4    0.00 
 123   15:00   0.71   83.8    18   24.8   243    37.1   977.3    0.00 
 123   15:10   0.68   84.7    17   22.2   240    39.5   977.4    0.00 
 123   15:20   0.65   84.7    18   21.0   245    33.1   977.3    0.00 
 123   15:30   0.62   83.5    18   23.0   255    38.5   977.2    0.00 
 123   15:40   0.59   83.7    17   22.7   253    37.9   976.9    0.00 
 123   15:50   0.56   84.5    16   20.1   248    38.1   977.0    0.00 
 123   16:00   0.53   84.0    16   19.3   262    36.1   977.0    0.00 
 123   16:10   0.50   83.4    16   21.5   261    35.4   977.1    0.00 
 123   16:20   0.47   82.1    18   20.9   251    32.0   977.3    0.00 
 123   16:30   0.40   81.8    17   16.4   264    36.9   977.4    0.00 
 123   16:40   0.36   81.3    16   24.7   282    46.6   977.2    0.00 
 123   16:50   0.17   80.2    16   17.5   313    38.1   977.5    0.00 
 123   17:00   0.16   79.8    18   10.4   319    21.8   977.8    0.00 
 123   17:10   0.16   78.7    20   12.5   288    25.8   977.9    0.00 
 123   17:20   0.15   77.7    23   11.3   314    19.9   978.0    0.00 
 123   17:30   0.12   76.1    27    9.5   318    17.5   978.0    0.00 
 123   17:40   0.10   75.1    28    9.7   307    18.2   978.1    0.00 
 123   17:50   0.08   74.1    30   12.9   306    21.3   978.1    0.00 
 123   18:00   0.06   73.4    30    7.6   307    15.6   978.4    0.00 
 123   18:10   0.05   72.8    32    9.1   301    17.4   978.7    0.00 
 123   18:20   0.03   72.1    31   10.0   286    18.5   979.1    0.00 
 123   18:30   0.01   70.6    34   12.0   301    22.8   979.3    0.00 
 123   18:40   0.01   68.8    38   14.0   298    23.0   979.6    0.00 
 123   18:50   0.00   68.3    37   12.9   306    20.3   979.6    0.00 
 123   19:00   0.00   68.1    37   12.5   308    25.9   979.6    0.00 
 123   19:10   0.00   67.3    38   13.3   311    25.2   979.6    0.00 
 123   19:20   0.00   67.1    38   11.3   301    19.5   979.8    0.00 
 123   19:30   0.00   67.2    36    5.6   296    14.7   980.1    0.00 
 123   19:40   0.00   66.7    36    9.8   269    22.8   980.3    0.00 
 123   19:50   0.00   66.2    37    9.7   250    21.9   980.5    0.00 
 123   20:00   0.00   65.9    37   13.6   254    28.1   980.6    0.00 
 123   20:10   0.00   65.8    38    7.4   270    16.8   980.8    0.00 
 123   20:20   0.00   65.7    38    8.3   310    13.6   980.8    0.00 
 123   20:30   0.00   65.8    37    6.5   275    13.7   981.0    0.00 
 123   20:40   0.00   65.7    37    5.7   308    19.0   981.1    0.00 
 123   20:50   0.00   65.1    39   11.1   324    17.8   981.0    0.00 
 123   21:00   0.00   65.2    38    5.5   341    11.0   981.0    0.00 
 123   21:10   0.00   64.8    38   10.9   319    22.2   981.1    0.00 
 123   21:20   0.00   64.6    38   13.2   336    27.2   981.4    0.00 
 123   21:30   0.00   64.7    39    5.3   312    15.3   981.7    0.00 
 123   21:40   0.00   64.6    39    9.4   324    19.3   981.6    0.00 
 123   21:50   0.00   64.5    39    3.2    40     8.0   981.6    0.00 
 123   22:00   0.00   64.3    39    5.4   338    11.1   981.4    0.00 
 123   22:10   0.00   64.2    39    5.3   186    10.7   981.4    0.00 
 123   22:20   0.00   64.2    39    6.7   217    19.0   981.3    0.00 
 123   22:30   0.00   64.2    38    4.8   214    13.8   981.7    0.00 
 123   22:40   0.00   64.0    40    5.8   275    15.5   982.0    0.00 
 123   22:50   0.00   63.5    40   14.0   322    25.9   982.3    0.00 
 123   23:00   0.00   63.1    39   10.1   320    25.7   982.7    0.00 
 123   23:10   0.00   62.8    38    6.9   283    18.2   983.0    0.00 
 123   23:20   0.00   62.9    38   12.4   215    25.3   983.5    0.00 
 123   23:30   0.00   62.7    39   13.1   271    21.5   983.7    0.00 
 123   23:40   0.00   62.6    40    9.0   262    17.0   983.8    0.00 
 123   23:50   0.00   62.7    40    8.5   278    16.5   983.9    0.00 
 124    0:00   0.00   62.8    40    6.6   227    19.7   984.0    0.00 
 124    0:10   0.00   63.0    40    6.7   277    13.9   983.8    0.00 
 124    0:20   0.00   63.1    41    6.1   289    13.3   983.9    0.00 
 124    0:30   0.00   63.0    43    7.1   324    17.2   983.7    0.00 
 124    0:40   0.00   62.5    45    7.2   283    14.1   983.4    0.00 
 124    0:50   0.00   62.5    45    7.6   298    13.4   982.8    0.00 
 124    1:00   0.00   62.6    46    9.7   303    18.7   982.9    0.00 
 124    1:10   0.00   62.3    47   12.1   307    22.1   982.5    0.00 
 124    1:20   0.00   62.2    47   10.8   309    22.3   982.5    0.00 
 124    1:30   0.00   62.5    46    9.6   308    16.1   982.3    0.00 
 124    1:40   0.00   62.3    47    7.8   320    16.9   982.1    0.00 

Return to Anza Borrego Desert State Park graphs page.


Western Regional Climate Center,wrcc@dri.edu